createdAt,value
2022-10-17T00:00:28.154Z,12.82
2022-10-17T00:02:56.105Z,12.82
2022-10-17T00:05:24.010Z,12.44
2022-10-17T00:07:52.015Z,12.72
2022-10-17T00:10:20.695Z,12.71
2022-10-17T00:12:49.060Z,12.65
2022-10-17T00:15:20.547Z,12.62
2022-10-17T00:17:48.488Z,12.55
2022-10-17T00:20:16.869Z,12.45
2022-10-17T00:22:44.942Z,12.52
2022-10-17T00:25:13.394Z,12.52
2022-10-17T00:27:42.558Z,12.55
2022-10-17T00:30:13.634Z,12.53
2022-10-17T00:32:43.396Z,12.50
2022-10-17T00:35:13.740Z,12.44
2022-10-17T00:37:42.874Z,12.42
2022-10-17T00:40:12.058Z,12.52
2022-10-17T00:42:40.209Z,12.51
2022-10-17T00:45:22.058Z,12.37
2022-10-17T00:47:55.251Z,12.56
2022-10-17T00:50:23.464Z,12.50
2022-10-17T00:52:52.357Z,12.64
2022-10-17T00:55:26.360Z,12.52
2022-10-17T00:57:54.742Z,12.63
2022-10-17T01:00:22.712Z,12.53
2022-10-17T01:02:52.060Z,12.43
2022-10-17T01:05:20.833Z,12.53
2022-10-17T01:07:51.817Z,12.42
2022-10-17T01:10:20.783Z,12.19
2022-10-17T01:12:58.615Z,12.41
2022-10-17T01:15:40.668Z,12.36
2022-10-17T01:18:25.724Z,12.28
2022-10-17T01:21:22.435Z,12.21
2022-10-17T01:24:14.655Z,12.23
2022-10-17T01:27:06.927Z,12.15
2022-10-17T01:29:58.406Z,12.08
2022-10-17T01:32:35.984Z,12.28
2022-10-17T01:35:12.679Z,12.37
2022-10-17T01:37:47.376Z,12.36
2022-10-17T01:40:21.378Z,12.32
2022-10-17T01:43:03.404Z,12.32
2022-10-17T01:45:38.500Z,12.33
2022-10-17T01:48:12.566Z,12.31
2022-10-17T01:50:47.500Z,12.40
2022-10-17T01:53:20.164Z,11.78
2022-10-17T01:55:51.637Z,12.27
2022-10-17T01:58:25.242Z,11.92
2022-10-17T02:00:55.416Z,12.26
2022-10-17T02:03:25.890Z,12.29
2022-10-17T02:05:53.756Z,12.45
2022-10-17T02:08:29.328Z,12.62
2022-10-17T02:11:01.997Z,12.27
2022-10-17T02:13:42.352Z,12.45
2022-10-17T02:16:27.152Z,12.76
2022-10-17T02:19:09.474Z,12.74
2022-10-17T02:21:45.766Z,12.73
2022-10-17T02:24:21.642Z,12.82
2022-10-17T02:26:56.646Z,12.91
2022-10-17T02:29:30.221Z,12.96
2022-10-17T02:32:03.169Z,12.89
2022-10-17T02:34:37.554Z,12.83
2022-10-17T02:37:08.197Z,12.66
2022-10-17T02:39:37.156Z,12.84
2022-10-17T02:42:08.579Z,12.78
2022-10-17T02:44:40.642Z,12.82
2022-10-17T02:47:18.298Z,12.99
2022-10-17T02:49:52.673Z,12.88
2022-10-17T02:52:26.642Z,13.01
2022-10-17T02:54:59.766Z,13.11
2022-10-17T02:57:32.067Z,12.80
2022-10-17T03:00:03.893Z,12.99
2022-10-17T03:02:40.102Z,12.88
2022-10-17T03:05:13.578Z,13.00
2022-10-17T03:07:41.544Z,12.86
2022-10-17T03:10:09.501Z,12.99
2022-10-17T03:12:37.771Z,12.90
2022-10-17T03:15:06.938Z,12.96
2022-10-17T03:17:36.286Z,12.91
2022-10-17T03:20:04.698Z,12.93
2022-10-17T03:22:34.583Z,12.96
2022-10-17T03:25:04.882Z,12.96
2022-10-17T03:27:35.886Z,13.02
2022-10-17T03:30:04.594Z,13.10
2022-10-17T03:32:34.909Z,12.46
2022-10-17T03:35:02.866Z,12.73
2022-10-17T03:37:31.312Z,13.15
2022-10-17T03:40:01.780Z,13.02
2022-10-17T03:42:30.468Z,13.18
2022-10-17T03:44:58.761Z,13.11
2022-10-17T03:47:27.018Z,12.84
2022-10-17T03:49:55.113Z,13.18
2022-10-17T03:52:23.002Z,13.18
2022-10-17T03:54:55.713Z,12.92
2022-10-17T03:57:25.156Z,13.19
2022-10-17T03:59:53.527Z,13.07
2022-10-17T04:02:22.559Z,13.07
2022-10-17T04:04:51.138Z,13.00
2022-10-17T04:07:19.311Z,13.01
2022-10-17T04:09:49.829Z,13.09
2022-10-17T04:12:20.593Z,12.98
2022-10-17T04:14:50.056Z,13.13
2022-10-17T04:17:18.369Z,12.99
2022-10-17T04:19:46.514Z,13.24
2022-10-17T04:22:17.246Z,13.25
2022-10-17T04:24:45.124Z,13.30
2022-10-17T04:27:31.570Z,13.35
2022-10-17T04:30:01.075Z,13.23
2022-10-17T04:32:31.834Z,13.25
2022-10-17T04:35:21.820Z,13.25
2022-10-17T04:37:55.894Z,13.22
2022-10-17T04:40:23.970Z,13.17
2022-10-17T04:42:54.118Z,12.60
2022-10-17T04:45:28.311Z,13.07
2022-10-17T04:48:01.051Z,13.13
2022-10-17T04:50:29.106Z,13.04
2022-10-17T04:53:32.515Z,12.57
2022-10-17T04:56:00.305Z,13.10
2022-10-17T04:58:30.002Z,13.04
2022-10-17T05:00:59.331Z,13.03
2022-10-17T05:03:30.340Z,13.16
2022-10-17T05:05:58.201Z,13.20
2022-10-17T05:08:26.204Z,13.11
2022-10-17T05:10:54.097Z,13.18
2022-10-17T05:13:21.975Z,13.24
2022-10-17T05:15:50.375Z,13.11
2022-10-17T05:18:20.123Z,13.04
2022-10-17T05:20:48.062Z,13.04
2022-10-17T05:23:16.840Z,12.96
2022-10-17T05:25:46.002Z,13.05
2022-10-17T05:28:13.914Z,13.01
2022-10-17T05:30:43.686Z,13.03
2022-10-17T05:33:11.595Z,12.99
2022-10-17T05:35:40.884Z,12.95
2022-10-17T05:38:08.930Z,12.86
2022-10-17T05:40:39.306Z,12.92
2022-10-17T05:43:07.385Z,12.83
2022-10-17T05:45:35.170Z,12.78
2022-10-17T05:48:03.443Z,12.78
2022-10-17T05:50:31.707Z,12.62
2022-10-17T05:53:16.698Z,12.81
2022-10-17T05:55:56.753Z,12.76
2022-10-17T05:58:45.409Z,12.55
2022-10-17T06:01:22.991Z,12.73
2022-10-17T06:03:50.930Z,12.27
2022-10-17T06:06:20.004Z,12.94
2022-10-17T06:08:50.551Z,13.00
2022-10-17T06:11:24.038Z,12.96
2022-10-17T06:13:51.927Z,13.07
2022-10-17T06:16:24.973Z,13.11
2022-10-17T06:18:52.845Z,12.53
2022-10-17T06:21:23.551Z,12.69
2022-10-17T06:23:54.782Z,12.88
2022-10-17T06:26:30.093Z,13.27
2022-10-17T06:28:58.395Z,13.22
2022-10-17T06:31:30.107Z,13.32
2022-10-17T06:33:57.897Z,13.31
2022-10-17T06:36:25.827Z,13.31
2022-10-17T06:38:55.163Z,13.18
2022-10-17T06:41:30.416Z,13.34
2022-10-17T06:44:10.943Z,13.33
2022-10-17T06:46:57.464Z,13.51
2022-10-17T06:49:25.801Z,13.59
2022-10-17T06:52:01.014Z,13.54
2022-10-17T06:54:53.771Z,13.25
2022-10-17T06:57:32.199Z,13.62
2022-10-17T07:00:23.332Z,13.70
2022-10-17T07:02:55.037Z,13.68
2022-10-17T07:05:23.022Z,13.71
2022-10-17T07:07:51.042Z,13.82
2022-10-17T07:10:21.329Z,13.73
2022-10-17T07:12:49.407Z,14.19
2022-10-17T07:15:17.259Z,14.29
2022-10-17T07:17:50.329Z,14.57
2022-10-17T07:20:20.362Z,14.68
2022-10-17T07:22:50.932Z,14.87
2022-10-17T07:25:21.044Z,15.06
2022-10-17T07:27:56.304Z,14.92
2022-10-17T07:30:24.931Z,15.36
2022-10-17T07:33:06.799Z,15.50
2022-10-17T07:35:35.522Z,15.64
2022-10-17T07:38:03.388Z,15.65
2022-10-17T07:40:32.734Z,15.89
2022-10-17T07:43:01.515Z,15.87
2022-10-17T07:45:30.228Z,15.88
2022-10-17T07:47:59.020Z,15.93
2022-10-17T07:50:27.164Z,16.01
2022-10-17T07:52:55.162Z,16.06
2022-10-17T07:55:23.064Z,16.15
2022-10-17T07:57:52.282Z,16.14
2022-10-17T08:00:20.201Z,16.15
2022-10-17T08:02:48.418Z,16.35
2022-10-17T08:05:16.487Z,16.42
2022-10-17T08:07:44.311Z,16.00
2022-10-17T08:10:13.409Z,16.67
2022-10-17T08:12:41.578Z,16.74
2022-10-17T08:15:12.186Z,16.90
2022-10-17T08:17:40.420Z,17.22
2022-10-17T08:20:09.254Z,17.39
2022-10-17T08:22:37.239Z,16.98
2022-10-17T08:25:05.645Z,17.60
2022-10-17T08:27:34.502Z,17.53
2022-10-17T08:30:02.967Z,17.72
2022-10-17T08:32:32.705Z,17.74
2022-10-17T08:35:01.231Z,17.68
2022-10-17T08:37:30.438Z,17.79
2022-10-17T08:39:58.496Z,17.83
2022-10-17T08:42:40.055Z,17.63
2022-10-17T08:45:16.362Z,18.00
2022-10-17T08:47:47.380Z,18.09
2022-10-17T08:50:25.100Z,18.11
2022-10-17T08:52:56.429Z,18.08
2022-10-17T08:55:30.772Z,18.22
2022-10-17T08:57:58.933Z,18.23
2022-10-17T09:00:30.763Z,18.32
2022-10-17T09:03:19.348Z,18.32
2022-10-17T09:05:52.586Z,18.43
2022-10-17T09:08:32.959Z,18.34
2022-10-17T09:11:08.260Z,18.55
2022-10-17T09:13:48.359Z,18.62
2022-10-17T09:16:40.184Z,18.65
2022-10-17T09:19:18.371Z,18.64
2022-10-17T09:21:51.472Z,18.77
2022-10-17T09:24:25.397Z,19.01
2022-10-17T09:26:55.669Z,19.00
2022-10-17T09:29:24.331Z,18.97
2022-10-17T09:32:01.767Z,18.89
2022-10-17T09:34:33.386Z,18.91
2022-10-17T09:37:03.247Z,18.92
2022-10-17T09:39:32.052Z,18.95
2022-10-17T09:42:01.613Z,19.03
2022-10-17T09:44:32.316Z,19.08
2022-10-17T09:47:24.475Z,19.25
2022-10-17T09:49:54.133Z,19.36
2022-10-17T09:52:27.118Z,19.28
2022-10-17T09:55:00.849Z,19.61
2022-10-17T09:57:28.718Z,19.73
2022-10-17T10:00:02.010Z,19.86
2022-10-17T10:02:33.529Z,19.89
2022-10-17T10:05:06.751Z,19.95
2022-10-17T10:07:37.231Z,19.98
2022-10-17T10:10:06.069Z,20.15
2022-10-17T10:12:35.707Z,20.21
2022-10-17T10:15:24.019Z,20.32
2022-10-17T10:17:51.854Z,19.82
2022-10-17T10:20:31.581Z,20.10
2022-10-17T10:23:14.224Z,20.25
2022-10-17T10:25:54.602Z,20.23
2022-10-17T10:28:26.565Z,20.29
2022-10-17T10:30:56.953Z,20.26
2022-10-17T10:33:28.566Z,20.32
2022-10-17T10:36:01.599Z,20.29
2022-10-17T10:38:30.685Z,20.27
2022-10-17T10:41:04.372Z,20.30
2022-10-17T10:43:36.598Z,20.48
2022-10-17T10:46:07.460Z,20.51
2022-10-17T10:48:36.969Z,20.51
2022-10-17T10:51:14.529Z,20.61
2022-10-17T10:53:48.324Z,20.58
2022-10-17T10:56:20.126Z,20.77
2022-10-17T10:58:55.249Z,20.56
2022-10-17T11:01:30.435Z,20.34
2022-10-17T11:04:13.179Z,20.55
2022-10-17T11:06:45.882Z,20.56
2022-10-17T11:09:26.234Z,20.63
2022-10-17T11:12:00.001Z,20.71
2022-10-17T11:14:39.457Z,20.63
2022-10-17T11:17:18.640Z,20.25
2022-10-17T11:19:52.672Z,20.74
2022-10-17T11:22:29.294Z,20.90
2022-10-17T11:25:01.646Z,20.97
2022-10-17T11:27:30.697Z,21.14
2022-10-17T11:29:59.533Z,20.67
2022-10-17T11:32:32.884Z,21.02
2022-10-17T11:35:05.146Z,21.28
2022-10-17T11:37:39.511Z,21.24
2022-10-17T11:40:19.317Z,21.19
2022-10-17T11:42:56.076Z,21.18
2022-10-17T11:45:26.490Z,21.13
2022-10-17T11:48:00.069Z,21.33
2022-10-17T11:53:23.867Z,21.34
2022-10-17T11:55:53.649Z,21.42
2022-10-17T11:58:35.804Z,21.36
2022-10-17T12:01:16.028Z,21.26
2022-10-17T12:03:48.060Z,21.32
2022-10-17T12:06:25.852Z,21.43
2022-10-17T12:09:02.588Z,21.16
2022-10-17T12:11:41.371Z,21.34
2022-10-17T12:14:37.956Z,21.51
2022-10-17T12:17:07.517Z,21.53
2022-10-17T12:19:37.691Z,21.53
2022-10-17T12:22:07.317Z,21.58
2022-10-17T12:24:41.323Z,21.43
2022-10-17T12:27:42.350Z,21.64
2022-10-17T12:30:24.967Z,21.71
2022-10-17T12:33:07.789Z,21.00
2022-10-17T12:35:37.772Z,21.72
2022-10-17T12:38:21.424Z,21.54
2022-10-17T12:40:53.456Z,21.57
2022-10-17T12:43:46.794Z,21.40
2022-10-17T12:46:34.801Z,21.44
2022-10-17T12:49:06.176Z,21.31
2022-10-17T12:52:07.234Z,21.30
2022-10-17T12:54:47.653Z,21.26
2022-10-17T12:57:25.355Z,21.33
2022-10-17T12:59:57.866Z,21.34
2022-10-17T13:02:30.773Z,21.21
2022-10-17T13:05:07.865Z,21.28
2022-10-17T13:07:37.825Z,21.32
2022-10-17T13:10:07.687Z,21.35
2022-10-17T13:12:41.159Z,21.15
2022-10-17T13:15:16.749Z,21.12
2022-10-17T13:17:44.659Z,21.41
2022-10-17T13:20:25.650Z,21.37
2022-10-17T13:22:58.366Z,21.37
2022-10-17T13:25:28.746Z,21.42
2022-10-17T13:28:12.856Z,21.29
2022-10-17T13:30:41.016Z,21.20
2022-10-17T13:33:32.280Z,21.28
2022-10-17T13:36:03.122Z,21.06
2022-10-17T13:38:35.628Z,21.15
2022-10-17T13:41:33.523Z,21.13
2022-10-17T13:43:53.451Z,21.09
2022-10-17T13:46:37.229Z,21.20
2022-10-17T13:49:16.498Z,21.08
2022-10-17T13:51:47.952Z,21.09
2022-10-17T13:54:29.377Z,21.13
2022-10-17T13:56:58.112Z,21.15
2022-10-17T13:59:29.952Z,20.78
2022-10-17T14:01:57.979Z,21.16
2022-10-17T14:04:25.859Z,21.10
2022-10-17T14:06:55.471Z,21.19
2022-10-17T14:09:26.777Z,21.11
2022-10-17T14:12:01.697Z,21.05
2022-10-17T14:14:46.105Z,21.07
2022-10-17T14:17:24.832Z,21.18
2022-10-17T14:20:16.074Z,21.11
2022-10-17T14:22:50.451Z,20.84
2022-10-17T14:25:30.604Z,21.04
2022-10-17T14:28:08.079Z,20.97
2022-10-17T14:30:55.722Z,20.76
2022-10-17T14:33:27.781Z,20.72
2022-10-17T14:35:57.469Z,20.61
2022-10-17T14:38:28.528Z,20.47
2022-10-17T14:41:22.102Z,20.79
2022-10-17T14:43:54.524Z,20.49
2022-10-17T14:46:22.487Z,20.86
2022-10-17T14:48:58.569Z,20.86
2022-10-17T14:51:26.561Z,20.87
2022-10-17T14:54:19.090Z,20.82
2022-10-17T14:56:52.365Z,20.66
2022-10-17T14:59:48.526Z,20.48
2022-10-17T15:02:12.025Z,20.40
2022-10-17T15:04:39.843Z,20.50
2022-10-17T15:07:07.810Z,20.38
2022-10-17T15:09:37.422Z,20.31
2022-10-17T15:12:12.204Z,20.31
2022-10-17T15:14:40.068Z,19.97
2022-10-17T15:17:14.148Z,20.32
2022-10-17T15:19:42.473Z,20.28
2022-10-17T15:22:10.593Z,20.32
2022-10-17T15:24:40.098Z,20.15
2022-10-17T15:27:14.828Z,20.11
2022-10-17T15:29:42.763Z,20.13
2022-10-17T15:32:10.846Z,20.40
2022-10-17T15:34:38.741Z,20.34
2022-10-17T15:37:07.495Z,20.12
2022-10-17T15:39:35.322Z,20.01
2022-10-17T15:42:06.454Z,19.89
2022-10-17T15:44:34.277Z,19.91
2022-10-17T15:47:02.913Z,19.91
2022-10-17T15:49:30.805Z,19.64
2022-10-17T15:51:58.625Z,19.74
2022-10-17T15:54:26.491Z,19.57
2022-10-17T15:56:56.061Z,19.39
2022-10-17T15:59:33.080Z,19.56
2022-10-17T16:02:00.954Z,19.56
2022-10-17T16:04:30.621Z,19.59
2022-10-17T16:06:58.416Z,19.47
2022-10-17T16:09:26.279Z,19.52
2022-10-17T16:11:54.137Z,19.37
2022-10-17T16:14:21.961Z,19.33
2022-10-17T16:16:51.167Z,19.20
2022-10-17T16:19:19.041Z,19.31
2022-10-17T16:21:47.058Z,19.17
2022-10-17T16:24:14.869Z,19.26
2022-10-17T16:26:42.738Z,19.19
2022-10-17T16:29:10.684Z,19.08
2022-10-17T16:31:42.897Z,19.02
2022-10-17T16:34:14.128Z,18.87
2022-10-17T16:36:42.870Z,19.24
2022-10-17T16:39:10.780Z,19.25
2022-10-17T16:41:40.298Z,19.33
2022-10-17T16:44:10.232Z,18.99
2022-10-17T16:46:38.824Z,19.38
2022-10-17T16:49:07.566Z,19.29
2022-10-17T16:51:36.957Z,19.19
2022-10-17T16:54:05.280Z,19.21
2022-10-17T16:56:33.315Z,19.39
2022-10-17T16:59:02.230Z,19.59
2022-10-17T17:01:30.438Z,19.63
2022-10-17T17:03:59.925Z,19.46
2022-10-17T17:06:30.141Z,19.64
2022-10-17T17:08:59.458Z,19.62
2022-10-17T17:11:29.339Z,19.61
2022-10-17T17:13:58.525Z,19.33
2022-10-17T17:16:27.911Z,19.40
2022-10-17T17:18:57.408Z,19.45
2022-10-17T17:21:27.036Z,19.36
2022-10-17T17:23:57.224Z,19.20
2022-10-17T17:26:28.172Z,19.33
2022-10-17T17:28:58.630Z,19.31
2022-10-17T17:31:28.341Z,19.33
2022-10-17T17:33:56.780Z,19.19
2022-10-17T17:36:26.479Z,19.31
2022-10-17T17:38:56.339Z,19.25
2022-10-17T17:41:26.400Z,19.11
2022-10-17T17:43:54.777Z,18.85
2022-10-17T17:46:23.989Z,18.95
2022-10-17T17:48:53.167Z,18.81
2022-10-17T17:51:28.440Z,18.89
2022-10-17T17:53:57.816Z,18.78
2022-10-17T17:56:28.858Z,18.40
2022-10-17T17:58:59.626Z,18.47
2022-10-17T18:01:28.984Z,18.40
2022-10-17T18:03:58.863Z,18.43
2022-10-17T18:06:27.467Z,18.39
2022-10-17T18:08:59.212Z,18.33
2022-10-17T18:11:29.636Z,18.32
2022-10-17T18:13:58.930Z,18.07
2022-10-17T18:16:27.974Z,18.22
2022-10-17T18:18:56.130Z,18.09
2022-10-17T18:21:24.067Z,18.31
2022-10-17T18:23:52.813Z,18.17
2022-10-17T18:26:20.854Z,18.15
2022-10-17T18:28:50.939Z,17.69
2022-10-17T18:31:23.959Z,18.08
2022-10-17T18:33:53.772Z,18.01
2022-10-17T18:36:22.725Z,17.86
2022-10-17T18:38:51.495Z,17.90
2022-10-17T18:41:21.796Z,17.96
2022-10-17T18:43:52.780Z,17.98
2022-10-17T18:46:22.425Z,18.02
2022-10-17T18:48:52.719Z,17.91
2022-10-17T18:51:22.469Z,17.93
2022-10-17T18:53:52.019Z,17.88
2022-10-17T18:56:20.856Z,17.80
2022-10-17T18:58:48.958Z,17.79
2022-10-17T19:01:20.505Z,17.76
2022-10-17T19:03:50.631Z,17.64
2022-10-17T19:06:20.722Z,17.79
2022-10-17T19:08:48.991Z,17.74
2022-10-17T19:11:19.007Z,17.71
2022-10-17T19:13:48.053Z,17.54
2022-10-17T19:16:19.068Z,17.62
2022-10-17T19:18:50.906Z,17.63
2022-10-17T19:21:21.869Z,17.56
2022-10-17T19:23:52.314Z,17.41
2022-10-17T19:26:21.217Z,17.48
2022-10-17T19:28:51.490Z,17.46
2022-10-17T19:31:25.573Z,16.97
2022-10-17T19:33:54.813Z,17.38
2022-10-17T19:36:27.470Z,17.38
2022-10-17T19:38:59.309Z,17.24
2022-10-17T19:41:27.989Z,17.21
2022-10-17T19:43:56.120Z,17.39
2022-10-17T19:46:27.071Z,17.41
2022-10-17T19:48:55.341Z,17.41
2022-10-17T19:51:25.355Z,17.41
2022-10-17T19:53:55.019Z,17.37
2022-10-17T19:56:24.584Z,17.50
2022-10-17T19:58:53.973Z,17.31
2022-10-17T20:01:26.072Z,17.44
2022-10-17T20:03:54.487Z,17.38
2022-10-17T20:06:23.193Z,17.39
2022-10-17T20:08:51.685Z,17.36
2022-10-17T20:11:21.822Z,17.37
2022-10-17T20:13:50.511Z,17.38
2022-10-17T20:16:21.403Z,17.35
2022-10-17T20:18:51.985Z,17.31
2022-10-17T20:21:22.319Z,17.40
2022-10-17T20:23:51.324Z,17.38
2022-10-17T20:26:36.552Z,17.23
2022-10-17T20:29:11.228Z,17.37
2022-10-17T20:31:40.495Z,17.38
2022-10-17T20:34:13.649Z,17.38
2022-10-17T20:36:42.084Z,17.40
2022-10-17T20:39:12.266Z,17.33
2022-10-17T20:41:40.031Z,17.35
2022-10-17T20:44:08.453Z,17.35
2022-10-17T20:46:38.459Z,17.26
2022-10-17T20:49:10.292Z,17.10
2022-10-17T20:51:38.410Z,17.14
2022-10-17T20:54:06.974Z,17.26
2022-10-17T20:56:36.097Z,16.83
2022-10-17T20:59:06.515Z,17.33
2022-10-17T21:01:36.377Z,17.32
2022-10-17T21:06:54.518Z,17.28
2022-10-17T21:09:22.835Z,16.17
2022-10-17T21:11:55.043Z,17.28
2022-10-17T21:14:24.225Z,17.30
2022-10-17T21:16:53.247Z,17.15
2022-10-17T21:19:22.316Z,17.27
2022-10-17T21:21:50.479Z,16.19
2022-10-17T21:24:20.786Z,17.21
2022-10-17T21:26:55.173Z,17.19
2022-10-17T21:29:24.187Z,17.18
2022-10-17T21:31:55.056Z,17.11
2022-10-17T21:34:25.065Z,17.03
2022-10-17T21:36:53.703Z,17.17
2022-10-17T21:39:24.782Z,17.07
2022-10-17T21:41:53.503Z,16.97
2022-10-17T21:44:23.338Z,17.10
2022-10-17T21:46:52.417Z,17.12
2022-10-17T21:49:22.035Z,17.15
2022-10-17T21:51:51.677Z,17.15
2022-10-17T21:54:22.930Z,16.83
2022-10-17T21:56:51.442Z,17.08
2022-10-17T21:59:19.414Z,17.10
2022-10-17T22:01:47.727Z,17.12
2022-10-17T22:04:17.235Z,16.47
2022-10-17T22:06:46.757Z,17.12
2022-10-17T22:09:16.522Z,16.86
2022-10-17T22:11:48.311Z,17.07
2022-10-17T22:14:18.329Z,17.07
2022-10-17T22:16:47.440Z,16.99
2022-10-17T22:19:17.953Z,16.98
2022-10-17T22:21:45.901Z,16.73
2022-10-17T22:24:16.709Z,17.01
2022-10-17T22:26:46.697Z,16.90
2022-10-17T22:29:15.088Z,16.98
2022-10-17T22:31:43.065Z,17.02
2022-10-17T22:34:13.509Z,16.99
2022-10-17T22:36:41.721Z,16.80
2022-10-17T22:39:09.664Z,16.93
2022-10-17T22:41:37.583Z,16.83
2022-10-17T22:44:08.034Z,17.03
2022-10-17T22:46:36.067Z,17.03
2022-10-17T22:49:03.927Z,16.93
2022-10-17T22:51:31.899Z,17.05
2022-10-17T22:53:59.676Z,16.88
2022-10-17T22:56:27.565Z,17.01
2022-10-17T22:58:55.420Z,16.98
2022-10-17T23:01:26.524Z,16.93
2022-10-17T23:03:55.315Z,16.91
2022-10-17T23:06:24.047Z,16.80
2022-10-17T23:08:52.824Z,16.90
2022-10-17T23:11:21.235Z,16.72
2022-10-17T23:13:49.192Z,16.88
2022-10-17T23:16:17.357Z,16.87
2022-10-17T23:18:46.925Z,16.82
2022-10-17T23:21:14.827Z,16.74
2022-10-17T23:23:42.821Z,16.77
2022-10-17T23:26:12.891Z,16.77
2022-10-17T23:28:41.743Z,16.79
2022-10-17T23:31:11.126Z,16.37
2022-10-17T23:33:41.253Z,16.80
2022-10-17T23:36:10.762Z,16.78
2022-10-17T23:38:39.001Z,16.78
2022-10-17T23:41:07.156Z,16.75
2022-10-17T23:43:35.237Z,16.51
2022-10-17T23:46:03.409Z,16.68
2022-10-17T23:48:31.611Z,16.67
2022-10-17T23:50:59.647Z,16.64
2022-10-17T23:53:28.822Z,16.63
2022-10-17T23:55:56.946Z,16.62
2022-10-17T23:58:24.797Z,16.52
